CheckWX is a tool to help pilots better visualize weather data.  It is not intended as a substitute for an official pre-flight weather briefing.

05:16:40 UTC

KCKV TAF
Outlaw Field Airport
Clarksville, Tennessee, USA
KCKV 272325Z 2800/2824 23010KT P6SM FEW040 SCT080 FM280700 23006KT P6SM VCSH BKN040 FM281200 26006KT P6SM OVC050 FM281600 28009KT P6SM BKN050

Feb-28@
00:00 UTC

Feb-28 @ 00:00 UTC

Feb-28@
07:00 UTC

Feb-28 @ 07:00 UTC

KCKV 272325Z 2800/2824 23010KT P6SM FEW040 SCT080
Wind
  • 230° at 10 KTS
Cloud Levels
  • Few at 4,000' AGL
  • Scattered at 8,000' AGL

Feb-28@
07:00 UTC

Feb-28 @ 07:00 UTC

Feb-28@
12:00 UTC

Feb-28 @ 12:00 UTC

FM280700 23006KT P6SM VCSH BKN040

From

From Standard forecast or significant change

Wind
  • 230° at 6 KTS
Cloud Levels
  • Broken at 4,000' AGL

Feb-28@
12:00 UTC

Feb-28 @ 12:00 UTC

Feb-28@
16:00 UTC

Feb-28 @ 16:00 UTC

FM281200 26006KT P6SM OVC050

From

From Standard forecast or significant change

Wind
  • 260° at 6 KTS
Cloud Levels
  • Overcast at 5,000' AGL

Feb-28@
16:00 UTC

Feb-28 @ 16:00 UTC

Feb-29@
00:00 UTC

Feb-29 @ 00:00 UTC

FM281600 28009KT P6SM BKN050

From

From Standard forecast or significant change

Wind
  • 280° at 9 KTS
Cloud Levels
  • Broken at 5,000' AGL